sensor_id;sensor_type;location;lat;lon;timestamp;pressure;altitude;pressure_sealevel;temperature;humidity
81999;BME280;71598;46.516;-122.928;2023-12-04T00:00:17;100032.39;;;15.84;25.68
81999;BME280;71598;46.516;-122.928;2023-12-04T00:02:43;100042.50;;;15.72;25.72
81999;BME280;71598;46.516;-122.928;2023-12-04T00:05:08;100043.93;;;15.80;25.63
81999;BME280;71598;46.516;-122.928;2023-12-04T00:07:33;100045.70;;;15.65;25.49
81999;BME280;71598;46.516;-122.928;2023-12-04T00:09:59;100049.10;;;15.72;25.54
81999;BME280;71598;46.516;-122.928;2023-12-04T00:12:24;100057.02;;;15.92;25.54
81999;BME280;71598;46.516;-122.928;2023-12-04T00:14:51;100065.86;;;16.03;25.56
81999;BME280;71598;46.516;-122.928;2023-12-04T00:17:17;100071.75;;;15.87;25.58
81999;BME280;71598;46.516;-122.928;2023-12-04T00:19:41;100077.71;;;15.76;25.58
81999;BME280;71598;46.516;-122.928;2023-12-04T00:22:07;100088.35;;;15.94;25.61
81999;BME280;71598;46.516;-122.928;2023-12-04T00:24:32;100103.16;;;15.72;25.68
81999;BME280;71598;46.516;-122.928;2023-12-04T00:26:58;100104.60;;;16.08;25.68
81999;BME280;71598;46.516;-122.928;2023-12-04T00:29:23;100102.61;;;15.64;25.46
81999;BME280;71598;46.516;-122.928;2023-12-04T00:31:48;100102.67;;;15.75;25.52
81999;BME280;71598;46.516;-122.928;2023-12-04T00:34:14;100105.14;;;16.03;25.62
81999;BME280;71598;46.516;-122.928;2023-12-04T00:36:40;100106.46;;;15.82;25.69
81999;BME280;71598;46.516;-122.928;2023-12-04T00:39:06;100109.59;;;15.77;25.72
81999;BME280;71598;46.516;-122.928;2023-12-04T00:41:31;100112.64;;;15.77;25.74
81999;BME280;71598;46.516;-122.928;2023-12-04T00:43:59;100112.40;;;15.83;25.62
81999;BME280;71598;46.516;-122.928;2023-12-04T00:46:22;100114.06;;;15.97;25.48
81999;BME280;71598;46.516;-122.928;2023-12-04T00:48:49;100116.37;;;16.08;25.52
81999;BME280;71598;46.516;-122.928;2023-12-04T00:51:14;100125.80;;;15.66;25.53
81999;BME280;71598;46.516;-122.928;2023-12-04T00:53:40;100133.07;;;15.89;25.57
81999;BME280;71598;46.516;-122.928;2023-12-04T00:56:10;100141.48;;;15.75;25.60
81999;BME280;71598;46.516;-122.928;2023-12-04T00:58:30;100146.62;;;15.91;25.67
81999;BME280;71598;46.516;-122.928;2023-12-04T01:00:55;100150.63;;;16.00;25.69
81999;BME280;71598;46.516;-122.928;2023-12-04T01:03:21;100157.18;;;15.83;25.75
81999;BME280;71598;46.516;-122.928;2023-12-04T01:05:47;100160.89;;;15.76;25.80
81999;BME280;71598;46.516;-122.928;2023-12-04T01:08:13;100163.08;;;15.85;25.82
81999;BME280;71598;46.516;-122.928;2023-12-04T01:10:39;100163.48;;;15.64;25.78
81999;BME280;71598;46.516;-122.928;2023-12-04T01:13:05;100170.98;;;16.02;25.69
81999;BME280;71598;46.516;-122.928;2023-12-04T01:15:28;100179.11;;;15.93;25.76
81999;BME280;71598;46.516;-122.928;2023-12-04T01:17:54;100184.36;;;15.73;25.75
81999;BME280;71598;46.516;-122.928;2023-12-04T01:20:20;100180.15;;;15.57;25.93
81999;BME280;71598;46.516;-122.928;2023-12-04T01:22:45;100181.86;;;15.90;25.74
81999;BME280;71598;46.516;-122.928;2023-12-04T01:25:11;100188.84;;;15.80;25.76
81999;BME280;71598;46.516;-122.928;2023-12-04T01:27:37;100198.03;;;15.89;25.65
81999;BME280;71598;46.516;-122.928;2023-12-04T01:30:04;100200.78;;;15.95;25.67
81999;BME280;71598;46.516;-122.928;2023-12-04T01:32:26;100200.94;;;15.76;25.67
81999;BME280;71598;46.516;-122.928;2023-12-04T01:34:57;100211.01;;;15.85;25.80
81999;BME280;71598;46.516;-122.928;2023-12-04T01:37:17;100212.69;;;15.60;25.80
81999;BME280;71598;46.516;-122.928;2023-12-04T01:39:42;100217.37;;;15.91;25.80
81999;BME280;71598;46.516;-122.928;2023-12-04T01:42:09;100221.03;;;15.46;25.81
81999;BME280;71598;46.516;-122.928;2023-12-04T01:44:33;100225.74;;;15.75;25.82
81999;BME280;71598;46.516;-122.928;2023-12-04T01:46:58;100228.75;;;15.92;25.83
81999;BME280;71598;46.516;-122.928;2023-12-04T01:49:24;100229.57;;;15.93;25.86
81999;BME280;71598;46.516;-122.928;2023-12-04T01:51:49;100241.37;;;15.81;25.90
81999;BME280;71598;46.516;-122.928;2023-12-04T01:54:14;100243.87;;;15.70;25.91
81999;BME280;71598;46.516;-122.928;2023-12-04T01:56:42;100249.08;;;15.70;25.85
81999;BME280;71598;46.516;-122.928;2023-12-04T01:59:06;100249.39;;;15.87;25.74
81999;BME280;71598;46.516;-122.928;2023-12-04T02:01:31;100257.17;;;16.19;25.65
81999;BME280;71598;46.516;-122.928;2023-12-04T02:03:59;100252.96;;;15.80;25.71
81999;BME280;71598;46.516;-122.928;2023-12-04T02:06:22;100253.28;;;16.09;25.54
81999;BME280;71598;46.516;-122.928;2023-12-04T02:08:47;100252.72;;;16.01;25.45
81999;BME280;71598;46.516;-122.928;2023-12-04T02:11:14;100257.96;;;16.09;25.53
81999;BME280;71598;46.516;-122.928;2023-12-04T02:13:39;100257.75;;;16.17;25.59
81999;BME280;71598;46.516;-122.928;2023-12-04T02:16:05;100256.14;;;16.09;25.58
81999;BME280;71598;46.516;-122.928;2023-12-04T02:18:29;100262.40;;;16.02;25.53
81999;BME280;71598;46.516;-122.928;2023-12-04T02:20:54;100261.95;;;15.98;25.55
81999;BME280;71598;46.516;-122.928;2023-12-04T02:23:20;100256.93;;;16.12;25.58
81999;BME280;71598;46.516;-122.928;2023-12-04T02:25:45;100259.65;;;16.06;25.52
81999;BME280;71598;46.516;-122.928;2023-12-04T02:28:15;100260.80;;;16.25;25.37
81999;BME280;71598;46.516;-122.928;2023-12-04T02:30:39;100264.42;;;16.19;25.53
81999;BME280;71598;46.516;-122.928;2023-12-04T02:33:05;100271.47;;;16.13;25.61
81999;BME280;71598;46.516;-122.928;2023-12-04T02:35:31;100266.34;;;16.28;25.57
81999;BME280;71598;46.516;-122.928;2023-12-04T02:37:54;100263.71;;;16.14;25.73
81999;BME280;71598;46.516;-122.928;2023-12-04T02:40:18;100265.50;;;15.90;25.83
81999;BME280;71598;46.516;-122.928;2023-12-04T02:42:43;100264.14;;;15.95;25.76
81999;BME280;71598;46.516;-122.928;2023-12-04T02:45:09;100279.33;;;15.71;25.90
81999;BME280;71598;46.516;-122.928;2023-12-04T02:47:35;100283.59;;;15.69;26.04
81999;BME280;71598;46.516;-122.928;2023-12-04T02:50:00;100264.15;;;15.51;26.13
81999;BME280;71598;46.516;-122.928;2023-12-04T02:52:25;100245.07;;;15.36;26.18
81999;BME280;71598;46.516;-122.928;2023-12-04T02:54:52;100245.03;;;15.31;26.32
81999;BME280;71598;46.516;-122.928;2023-12-04T02:57:16;100249.03;;;15.34;26.37
81999;BME280;71598;46.516;-122.928;2023-12-04T02:59:42;100240.59;;;15.49;26.43
81999;BME280;71598;46.516;-122.928;2023-12-04T03:02:07;100238.24;;;15.69;26.09
81999;BME280;71598;46.516;-122.928;2023-12-04T03:04:32;100235.65;;;16.02;25.97
81999;BME280;71598;46.516;-122.928;2023-12-04T03:06:59;100231.91;;;15.86;26.10
81999;BME280;71598;46.516;-122.928;2023-12-04T03:09:24;100238.50;;;15.80;26.23
81999;BME280;71598;46.516;-122.928;2023-12-04T03:11:50;100253.18;;;15.53;26.29
81999;BME280;71598;46.516;-122.928;2023-12-04T03:14:15;100277.47;;;15.69;26.06
81999;BME280;71598;46.516;-122.928;2023-12-04T03:16:40;100272.61;;;16.09;25.91
81999;BME280;71598;46.516;-122.928;2023-12-04T03:19:06;100275.55;;;16.16;25.68
81999;BME280;71598;46.516;-122.928;2023-12-04T03:21:32;100279.42;;;16.24;25.48
81999;BME280;71598;46.516;-122.928;2023-12-04T03:23:57;100279.01;;;16.42;25.34
81999;BME280;71598;46.516;-122.928;2023-12-04T03:26:23;100315.69;;;16.66;25.17
81999;BME280;71598;46.516;-122.928;2023-12-04T03:28:48;100338.32;;;16.77;25.09
81999;BME280;71598;46.516;-122.928;2023-12-04T03:31:14;100333.47;;;16.45;25.03
81999;BME280;71598;46.516;-122.928;2023-12-04T03:33:39;100330.30;;;16.92;24.87
81999;BME280;71598;46.516;-122.928;2023-12-04T03:36:05;100329.94;;;16.84;24.91
81999;BME280;71598;46.516;-122.928;2023-12-04T03:38:32;100314.08;;;16.59;24.80
81999;BME280;71598;46.516;-122.928;2023-12-04T03:40:56;100308.38;;;16.99;24.79
81999;BME280;71598;46.516;-122.928;2023-12-04T03:43:22;100325.09;;;16.84;24.79
81999;BME280;71598;46.516;-122.928;2023-12-04T03:45:47;100320.96;;;16.83;24.81
81999;BME280;71598;46.516;-122.928;2023-12-04T03:48:12;100309.36;;;17.05;24.82
81999;BME280;71598;46.516;-122.928;2023-12-04T03:50:38;100303.53;;;17.01;24.85
81999;BME280;71598;46.516;-122.928;2023-12-04T03:53:03;100319.13;;;17.01;24.84
81999;BME280;71598;46.516;-122.928;2023-12-04T03:55:29;100329.10;;;17.07;24.87
81999;BME280;71598;46.516;-122.928;2023-12-04T03:57:54;100330.48;;;17.10;24.83
81999;BME280;71598;46.516;-122.928;2023-12-04T04:00:19;100327.58;;;17.15;24.81
81999;BME280;71598;46.516;-122.928;2023-12-04T04:02:45;100320.43;;;16.99;24.85
81999;BME280;71598;46.516;-122.928;2023-12-04T04:05:10;100330.97;;;17.03;24.83
81999;BME280;71598;46.516;-122.928;2023-12-04T04:07:35;100329.26;;;17.01;24.94
81999;BME280;71598;46.516;-122.928;2023-12-04T04:10:00;100334.13;;;17.02;24.84
81999;BME280;71598;46.516;-122.928;2023-12-04T04:12:25;100331.11;;;17.00;24.76
81999;BME280;71598;46.516;-122.928;2023-12-04T04:14:52;100314.37;;;16.98;24.76
81999;BME280;71598;46.516;-122.928;2023-12-04T04:17:16;100324.11;;;17.06;24.78
81999;BME280;71598;46.516;-122.928;2023-12-04T04:19:42;100313.86;;;16.92;24.78
81999;BME280;71598;46.516;-122.928;2023-12-04T04:22:08;100299.87;;;17.03;24.78
81999;BME280;71598;46.516;-122.928;2023-12-04T04:24:33;100296.86;;;17.05;24.76
81999;BME280;71598;46.516;-122.928;2023-12-04T04:26:58;100297.79;;;16.94;24.75
81999;BME280;71598;46.516;-122.928;2023-12-04T04:29:23;100288.83;;;17.00;24.71
81999;BME280;71598;46.516;-122.928;2023-12-04T04:31:48;100267.11;;;17.01;24.73
81999;BME280;71598;46.516;-122.928;2023-12-04T04:34:14;100254.13;;;17.01;24.71
81999;BME280;71598;46.516;-122.928;2023-12-04T04:36:39;100249.88;;;17.11;24.74
81999;BME280;71598;46.516;-122.928;2023-12-04T04:39:07;100205.92;;;16.86;24.75
81999;BME280;71598;46.516;-122.928;2023-12-04T04:41:30;100171.28;;;16.99;24.73
81999;BME280;71598;46.516;-122.928;2023-12-04T04:43:56;100163.15;;;16.83;24.62
81999;BME280;71598;46.516;-122.928;2023-12-04T04:46:21;100118.30;;;16.73;24.74
81999;BME280;71598;46.516;-122.928;2023-12-04T04:48:47;100107.23;;;16.86;24.76
81999;BME280;71598;46.516;-122.928;2023-12-04T04:51:12;100103.76;;;16.94;24.73
81999;BME280;71598;46.516;-122.928;2023-12-04T04:53:39;100109.93;;;17.23;24.62
81999;BME280;71598;46.516;-122.928;2023-12-04T04:56:04;100105.77;;;16.79;24.51
81999;BME280;71598;46.516;-122.928;2023-12-04T04:58:29;100086.29;;;17.01;24.45
81999;BME280;71598;46.516;-122.928;2023-12-04T05:00:56;100099.27;;;16.73;24.43
81999;BME280;71598;46.516;-122.928;2023-12-04T05:03:20;100111.86;;;16.87;24.41
81999;BME280;71598;46.516;-122.928;2023-12-04T05:05:46;100120.36;;;17.32;24.33
81999;BME280;71598;46.516;-122.928;2023-12-04T05:08:10;100119.88;;;17.31;24.32
81999;BME280;71598;46.516;-122.928;2023-12-04T05:10:39;100125.38;;;17.42;24.31
81999;BME280;71598;46.516;-122.928;2023-12-04T05:13:02;100152.84;;;17.34;24.31
81999;BME280;71598;46.516;-122.928;2023-12-04T05:15:27;100179.83;;;17.25;24.29
81999;BME280;71598;46.516;-122.928;2023-12-04T05:17:53;100197.95;;;17.06;24.31
81999;BME280;71598;46.516;-122.928;2023-12-04T05:20:18;100209.31;;;17.14;24.32
81999;BME280;71598;46.516;-122.928;2023-12-04T05:22:44;100221.16;;;16.81;24.38
81999;BME280;71598;46.516;-122.928;2023-12-04T05:25:10;100222.66;;;17.15;24.40
81999;BME280;71598;46.516;-122.928;2023-12-04T05:27:36;100220.87;;;16.98;24.33
81999;BME280;71598;46.516;-122.928;2023-12-04T05:30:00;100221.51;;;17.40;24.29
81999;BME280;71598;46.516;-122.928;2023-12-04T05:32:26;100211.71;;;17.14;24.30
81999;BME280;71598;46.516;-122.928;2023-12-04T05:34:52;100193.29;;;17.48;24.25
81999;BME280;71598;46.516;-122.928;2023-12-04T05:37:17;100206.45;;;17.36;24.25
81999;BME280;71598;46.516;-122.928;2023-12-04T05:39:47;100205.57;;;17.23;24.24
81999;BME280;71598;46.516;-122.928;2023-12-04T05:42:08;100203.27;;;17.15;24.42
81999;BME280;71598;46.516;-122.928;2023-12-04T05:44:34;100206.76;;;17.22;24.37
81999;BME280;71598;46.516;-122.928;2023-12-04T05:47:00;100215.21;;;16.69;24.36
81999;BME280;71598;46.516;-122.928;2023-12-04T05:49:27;100218.96;;;16.80;24.27
81999;BME280;71598;46.516;-122.928;2023-12-04T05:51:50;100216.52;;;17.30;24.31
81999;BME280;71598;46.516;-122.928;2023-12-04T05:54:15;100219.95;;;17.24;24.35
81999;BME280;71598;46.516;-122.928;2023-12-04T05:56:40;100215.66;;;16.70;24.46
81999;BME280;71598;46.516;-122.928;2023-12-04T05:59:06;100214.83;;;17.01;24.42
81999;BME280;71598;46.516;-122.928;2023-12-04T06:01:31;100216.05;;;16.98;24.38
81999;BME280;71598;46.516;-122.928;2023-12-04T06:03:56;100211.35;;;17.20;24.28
81999;BME280;71598;46.516;-122.928;2023-12-04T06:06:22;100206.76;;;17.09;24.27
81999;BME280;71598;46.516;-122.928;2023-12-04T06:08:47;100201.06;;;16.87;24.26
81999;BME280;71598;46.516;-122.928;2023-12-04T06:11:13;100198.28;;;17.03;24.28
81999;BME280;71598;46.516;-122.928;2023-12-04T06:13:39;100198.65;;;17.22;24.30
81999;BME280;71598;46.516;-122.928;2023-12-04T06:16:04;100204.40;;;16.72;24.32
81999;BME280;71598;46.516;-122.928;2023-12-04T06:18:29;100200.03;;;17.08;24.36
81999;BME280;71598;46.516;-122.928;2023-12-04T06:20:56;100197.59;;;16.62;24.42
81999;BME280;71598;46.516;-122.928;2023-12-04T06:23:21;100201.36;;;17.12;24.46
81999;BME280;71598;46.516;-122.928;2023-12-04T06:25:46;100203.12;;;16.96;24.48
81999;BME280;71598;46.516;-122.928;2023-12-04T06:28:13;100203.67;;;17.09;24.48
81999;BME280;71598;46.516;-122.928;2023-12-04T06:30:37;100202.91;;;17.06;24.49
81999;BME280;71598;46.516;-122.928;2023-12-04T06:33:03;100209.26;;;16.93;24.49
81999;BME280;71598;46.516;-122.928;2023-12-04T06:35:28;100210.22;;;16.80;24.49
81999;BME280;71598;46.516;-122.928;2023-12-04T06:37:54;100203.56;;;16.65;24.51
81999;BME280;71598;46.516;-122.928;2023-12-04T06:40:21;100204.91;;;16.93;24.55
81999;BME280;71598;46.516;-122.928;2023-12-04T06:42:45;100204.38;;;16.75;24.57
81999;BME280;71598;46.516;-122.928;2023-12-04T06:45:10;100209.98;;;16.86;24.56
81999;BME280;71598;46.516;-122.928;2023-12-04T06:47:35;100217.19;;;16.73;24.56
81999;BME280;71598;46.516;-122.928;2023-12-04T06:50:01;100221.03;;;16.76;24.55
81999;BME280;71598;46.516;-122.928;2023-12-04T06:52:26;100218.72;;;16.89;24.53
81999;BME280;71598;46.516;-122.928;2023-12-04T06:54:52;100225.11;;;16.77;24.51
81999;BME280;71598;46.516;-122.928;2023-12-04T06:57:16;100229.33;;;16.79;24.49
81999;BME280;71598;46.516;-122.928;2023-12-04T06:59:42;100235.18;;;16.90;24.48
81999;BME280;71598;46.516;-122.928;2023-12-04T07:02:08;100238.21;;;16.82;24.46
81999;BME280;71598;46.516;-122.928;2023-12-04T07:04:34;100242.71;;;16.82;24.45
81999;BME280;71598;46.516;-122.928;2023-12-04T07:06:59;100249.38;;;16.97;24.41
81999;BME280;71598;46.516;-122.928;2023-12-04T07:09:24;100252.52;;;16.79;24.43
81999;BME280;71598;46.516;-122.928;2023-12-04T07:11:49;100250.84;;;16.87;24.39
81999;BME280;71598;46.516;-122.928;2023-12-04T07:14:15;100258.56;;;16.74;24.36
81999;BME280;71598;46.516;-122.928;2023-12-04T07:16:41;100267.94;;;16.87;24.41
81999;BME280;71598;46.516;-122.928;2023-12-04T07:19:06;100269.28;;;16.67;24.50
81999;BME280;71598;46.516;-122.928;2023-12-04T07:21:31;100266.45;;;16.38;24.59
81999;BME280;71598;46.516;-122.928;2023-12-04T07:23:57;100279.10;;;16.35;24.68
81999;BME280;71598;46.516;-122.928;2023-12-04T07:26:22;100276.67;;;16.18;24.76
81999;BME280;71598;46.516;-122.928;2023-12-04T07:28:48;100278.82;;;16.26;24.82
81999;BME280;71598;46.516;-122.928;2023-12-04T07:31:13;100276.51;;;15.96;24.89
81999;BME280;71598;46.516;-122.928;2023-12-04T07:33:39;100271.81;;;16.14;24.97
81999;BME280;71598;46.516;-122.928;2023-12-04T07:36:05;100269.92;;;15.87;24.99
81999;BME280;71598;46.516;-122.928;2023-12-04T07:38:30;100279.45;;;15.91;25.04
81999;BME280;71598;46.516;-122.928;2023-12-04T07:40:57;100281.60;;;15.91;25.08
81999;BME280;71598;46.516;-122.928;2023-12-04T07:43:21;100290.05;;;15.82;25.11
81999;BME280;71598;46.516;-122.928;2023-12-04T07:45:46;100279.68;;;15.76;25.13
81999;BME280;71598;46.516;-122.928;2023-12-04T07:48:12;100275.63;;;15.95;25.11
81999;BME280;71598;46.516;-122.928;2023-12-04T07:50:37;100276.90;;;15.85;25.12
81999;BME280;71598;46.516;-122.928;2023-12-04T07:53:02;100278.18;;;16.03;25.12
81999;BME280;71598;46.516;-122.928;2023-12-04T07:55:28;100273.43;;;15.90;25.12
81999;BME280;71598;46.516;-122.928;2023-12-04T07:57:54;100272.29;;;16.10;25.12
81999;BME280;71598;46.516;-122.928;2023-12-04T08:00:20;100270.01;;;15.85;25.13
81999;BME280;71598;46.516;-122.928;2023-12-04T08:02:45;100266.65;;;15.53;25.09
81999;BME280;71598;46.516;-122.928;2023-12-04T08:05:10;100273.17;;;16.10;25.11
81999;BME280;71598;46.516;-122.928;2023-12-04T08:07:36;100274.21;;;15.92;25.12
81999;BME280;71598;46.516;-122.928;2023-12-04T08:10:02;100272.46;;;15.63;25.14
81999;BME280;71598;46.516;-122.928;2023-12-04T08:12:27;100273.52;;;15.83;25.14
81999;BME280;71598;46.516;-122.928;2023-12-04T08:14:52;100275.26;;;15.91;25.15
81999;BME280;71598;46.516;-122.928;2023-12-04T08:17:17;100270.82;;;15.51;25.14
81999;BME280;71598;46.516;-122.928;2023-12-04T08:19:43;100275.00;;;15.61;25.14
81999;BME280;71598;46.516;-122.928;2023-12-04T08:22:08;100282.06;;;15.69;25.13
81999;BME280;71598;46.516;-122.928;2023-12-04T08:24:34;100276.60;;;15.77;25.15
81999;BME280;71598;46.516;-122.928;2023-12-04T08:27:00;100277.68;;;15.63;25.13
81999;BME280;71598;46.516;-122.928;2023-12-04T08:29:26;100279.53;;;15.73;25.12
81999;BME280;71598;46.516;-122.928;2023-12-04T08:31:51;100266.26;;;15.59;25.12
81999;BME280;71598;46.516;-122.928;2023-12-04T08:34:17;100262.91;;;15.79;25.12
81999;BME280;71598;46.516;-122.928;2023-12-04T08:36:42;100256.96;;;15.86;25.13
81999;BME280;71598;46.516;-122.928;2023-12-04T08:39:07;100258.98;;;15.72;25.11
81999;BME280;71598;46.516;-122.928;2023-12-04T08:41:34;100270.24;;;15.68;25.13
81999;BME280;71598;46.516;-122.928;2023-12-04T08:43:58;100278.11;;;15.77;25.12
81999;BME280;71598;46.516;-122.928;2023-12-04T08:46:25;100265.40;;;15.63;25.12
81999;BME280;71598;46.516;-122.928;2023-12-04T08:48:50;100261.81;;;15.56;25.06
81999;BME280;71598;46.516;-122.928;2023-12-04T08:51:17;100255.50;;;15.46;25.03
81999;BME280;71598;46.516;-122.928;2023-12-04T08:53:41;100251.23;;;15.56;25.02
81999;BME280;71598;46.516;-122.928;2023-12-04T08:56:07;100243.75;;;15.40;25.03
81999;BME280;71598;46.516;-122.928;2023-12-04T08:58:31;100243.38;;;15.40;25.10
81999;BME280;71598;46.516;-122.928;2023-12-04T09:00:57;100248.59;;;15.22;25.12
81999;BME280;71598;46.516;-122.928;2023-12-04T09:03:23;100251.69;;;15.54;25.14
81999;BME280;71598;46.516;-122.928;2023-12-04T09:05:48;100250.74;;;15.27;25.14
81999;BME280;71598;46.516;-122.928;2023-12-04T09:08:13;100250.40;;;15.37;25.14
81999;BME280;71598;46.516;-122.928;2023-12-04T09:10:38;100256.64;;;15.47;25.14
81999;BME280;71598;46.516;-122.928;2023-12-04T09:13:04;100262.49;;;15.54;25.15
81999;BME280;71598;46.516;-122.928;2023-12-04T09:15:29;100263.55;;;15.19;25.14
81999;BME280;71598;46.516;-122.928;2023-12-04T09:17:54;100274.73;;;15.50;25.14
81999;BME280;71598;46.516;-122.928;2023-12-04T09:20:19;100274.49;;;15.14;25.16
81999;BME280;71598;46.516;-122.928;2023-12-04T09:22:44;100274.95;;;15.23;25.16
81999;BME280;71598;46.516;-122.928;2023-12-04T09:25:10;100275.17;;;15.21;25.15
81999;BME280;71598;46.516;-122.928;2023-12-04T09:27:36;100274.78;;;15.41;25.16
81999;BME280;71598;46.516;-122.928;2023-12-04T09:30:00;100278.69;;;15.16;25.18
81999;BME280;71598;46.516;-122.928;2023-12-04T09:32:27;100280.88;;;15.45;25.18
81999;BME280;71598;46.516;-122.928;2023-12-04T09:34:52;100286.54;;;15.34;25.16
81999;BME280;71598;46.516;-122.928;2023-12-04T09:37:17;100289.68;;;15.21;25.17
81999;BME280;71598;46.516;-122.928;2023-12-04T09:39:42;100293.11;;;15.29;25.16
81999;BME280;71598;46.516;-122.928;2023-12-04T09:42:09;100296.54;;;15.35;25.18
81999;BME280;71598;46.516;-122.928;2023-12-04T09:44:33;100305.27;;;15.32;25.19
81999;BME280;71598;46.516;-122.928;2023-12-04T09:46:59;100309.75;;;15.20;25.19
81999;BME280;71598;46.516;-122.928;2023-12-04T09:49:23;100310.64;;;15.29;25.19
81999;BME280;71598;46.516;-122.928;2023-12-04T09:51:49;100307.19;;;15.05;25.19
81999;BME280;71598;46.516;-122.928;2023-12-04T09:54:17;100299.30;;;15.01;25.21
81999;BME280;71598;46.516;-122.928;2023-12-04T09:56:39;100287.36;;;15.09;25.21
81999;BME280;71598;46.516;-122.928;2023-12-04T09:59:06;100283.98;;;15.17;25.21
81999;BME280;71598;46.516;-122.928;2023-12-04T10:01:30;100282.15;;;15.24;25.22
81999;BME280;71598;46.516;-122.928;2023-12-04T10:03:58;100280.91;;;15.22;25.22
81999;BME280;71598;46.516;-122.928;2023-12-04T10:06:22;100285.08;;;15.21;25.22
81999;BME280;71598;46.516;-122.928;2023-12-04T10:08:46;100283.54;;;15.07;25.23
81999;BME280;71598;46.516;-122.928;2023-12-04T10:11:12;100285.17;;;14.86;25.23
81999;BME280;71598;46.516;-122.928;2023-12-04T10:13:38;100282.03;;;15.15;25.22
81999;BME280;71598;46.516;-122.928;2023-12-04T10:16:04;100291.36;;;15.04;25.22
81999;BME280;71598;46.516;-122.928;2023-12-04T10:18:30;100292.32;;;14.90;25.22
81999;BME280;71598;46.516;-122.928;2023-12-04T10:20:55;100282.92;;;14.90;25.22
81999;BME280;71598;46.516;-122.928;2023-12-04T10:23:20;100280.50;;;14.98;25.21
81999;BME280;71598;46.516;-122.928;2023-12-04T10:25:46;100280.76;;;14.96;25.22
81999;BME280;71598;46.516;-122.928;2023-12-04T10:28:13;100277.48;;;14.84;25.21
81999;BME280;71598;46.516;-122.928;2023-12-04T10:30:37;100273.74;;;14.93;25.21
81999;BME280;71598;46.516;-122.928;2023-12-04T10:33:03;100268.77;;;14.81;25.22
81999;BME280;71598;46.516;-122.928;2023-12-04T10:35:30;100271.20;;;15.17;25.23
81999;BME280;71598;46.516;-122.928;2023-12-04T10:37:55;100272.18;;;14.95;25.23
81999;BME280;71598;46.516;-122.928;2023-12-04T10:40:24;100273.88;;;14.76;25.22
81999;BME280;71598;46.516;-122.928;2023-12-04T10:42:45;100278.70;;;15.02;25.22
81999;BME280;71598;46.516;-122.928;2023-12-04T10:45:10;100280.52;;;14.59;25.23
81999;BME280;71598;46.516;-122.928;2023-12-04T10:47:36;100281.55;;;14.75;25.27
81999;BME280;71598;46.516;-122.928;2023-12-04T10:50:01;100282.24;;;15.21;25.30
81999;BME280;71598;46.516;-122.928;2023-12-04T10:52:27;100283.39;;;14.86;25.29
81999;BME280;71598;46.516;-122.928;2023-12-04T10:54:51;100285.00;;;14.71;25.24
81999;BME280;71598;46.516;-122.928;2023-12-04T10:57:21;100284.95;;;14.82;25.22
81999;BME280;71598;46.516;-122.928;2023-12-04T10:59:42;100286.20;;;15.01;25.22
81999;BME280;71598;46.516;-122.928;2023-12-04T11:02:07;100281.21;;;14.98;25.23
81999;BME280;71598;46.516;-122.928;2023-12-04T11:04:32;100270.76;;;14.75;25.22
81999;BME280;71598;46.516;-122.928;2023-12-04T11:06:59;100269.18;;;15.12;25.23
81999;BME280;71598;46.516;-122.928;2023-12-04T11:09:23;100272.77;;;14.89;25.24
81999;BME280;71598;46.516;-122.928;2023-12-04T11:11:53;100272.41;;;14.87;25.24
81999;BME280;71598;46.516;-122.928;2023-12-04T11:14:19;100269.54;;;14.84;25.25
81999;BME280;71598;46.516;-122.928;2023-12-04T11:16:45;100266.37;;;14.83;25.26
81999;BME280;71598;46.516;-122.928;2023-12-04T11:19:11;100267.04;;;14.82;25.28
81999;BME280;71598;46.516;-122.928;2023-12-04T11:21:32;100264.64;;;15.38;25.29
81999;BME280;71598;46.516;-122.928;2023-12-04T11:23:58;100264.16;;;14.94;25.32
81999;BME280;71598;46.516;-122.928;2023-12-04T11:26:23;100264.98;;;14.91;25.26
81999;BME280;71598;46.516;-122.928;2023-12-04T11:28:47;100265.19;;;14.78;25.25
81999;BME280;71598;46.516;-122.928;2023-12-04T11:31:13;100267.18;;;14.77;25.26
81999;BME280;71598;46.516;-122.928;2023-12-04T11:33:39;100267.26;;;14.67;25.26
81999;BME280;71598;46.516;-122.928;2023-12-04T11:36:08;100261.86;;;14.76;25.28
81999;BME280;71598;46.516;-122.928;2023-12-04T11:38:30;100256.25;;;14.44;25.28
81999;BME280;71598;46.516;-122.928;2023-12-04T11:40:54;100256.80;;;14.50;25.31
81999;BME280;71598;46.516;-122.928;2023-12-04T11:43:26;100245.49;;;14.91;25.29
81999;BME280;71598;46.516;-122.928;2023-12-04T11:45:48;100239.05;;;15.02;25.29
81999;BME280;71598;46.516;-122.928;2023-12-04T11:48:11;100237.39;;;14.81;25.29
81999;BME280;71598;46.516;-122.928;2023-12-04T11:50:36;100237.06;;;14.71;25.29
81999;BME280;71598;46.516;-122.928;2023-12-04T11:53:03;100237.25;;;14.97;25.32
81999;BME280;71598;46.516;-122.928;2023-12-04T11:55:27;100235.38;;;14.73;25.27
81999;BME280;71598;46.516;-122.928;2023-12-04T11:57:54;100230.49;;;14.77;25.36
81999;BME280;71598;46.516;-122.928;2023-12-04T12:00:21;100225.82;;;14.59;25.38
81999;BME280;71598;46.516;-122.928;2023-12-04T12:03:01;100223.85;;;14.77;25.40
81999;BME280;71598;46.516;-122.928;2023-12-04T12:05:09;100217.98;;;14.68;25.40
81999;BME280;71598;46.516;-122.928;2023-12-04T12:07:35;100218.32;;;14.99;25.39
81999;BME280;71598;46.516;-122.928;2023-12-04T12:10:00;100216.13;;;14.58;25.42